East York, Pennsylvania
Current Conditions -  °F | °C
As of 9:53 AM on Wednesday 22 Oct 2014 (Local Time) from KTHV Reporting Station
Light Rain Light Rain  
Wind Chill: 54°   Ceiling: 3400
Heat Index: 54°   Visibility: 9mi
Dew Point: 48°   Wind: 12mph
Humidity: 80%   Direction: 350°N
Pressure: 29.95"   Gusts: 21mph
Location:  39.9768°N, 76.6853°W
Report Text: KTHV 221353Z AUTO 35010G18KT 9SM -RA SCT027 BKN034 OVC065 12/09 A2995 RMK AO2 RAB45 SLP145 P0000 T01220089
Loading
Personal Weather Stations






























Interactive Weather Map
Tropical Storm Tracking
New forecast layout! Learn more

10-Day Weather Forecast

Advertisements
Track Severe Weather on mobile